SBLE

Details ICAO SBLE (LEC)
Name CHAPADA DIAMANTINA
Region Brazil
Timezone America/Bahia (UTC-3.0)
Plans Departing 2
Arriving 1
Stats Elevation 1,676 ft / 511 m (AMSL)
Location -12.482289° -41.276968°
Runways 1
Magnetic Variation 23.076° W
Sunrise 2017-12-12 08:14:55 UTC / 2017-12-12 05:14:55 Local
Sunset 2017-12-12 21:05:43 UTC / 2017-12-12 18:05:43 Local
Advertisement - Login to hide

Runways

ID Width Length Bearing (true) Bearing (mag) Surface Threshold Offset Overrun Length
14 98 ft / 30 m 6,830 ft / 2,082 m 114.37° 137.45° Asphalt 0 ft / 0 m 0 ft / 0 m
32 98 ft / 30 m 6,830 ft / 2,082 m 294.36° 317.44° Asphalt 0 ft / 0 m 0 ft / 0 m

Map

Weather


0- 5 10 15 20 25 30 35+ Temperature / ° C

Clouds and Precipitation
Forecast for 2017-12-12 18:00 UTC. Updated 39 minutes ago

Ground ~20,000 ft ~40,000 ft Winds

METAR

SBLE 121700Z 08004KT 9999 SCT040 BKN080 30/21 Q1012

TAF

Not found
Warning: Do not use this data for real-world aviation or navigation. No guarantee of current accuracy is given.